sensor_id;sensor_type;location;lat;lon;timestamp;P1;durP1;ratioP1;P2;durP2;ratioP2
18407;SDS011;9330;52.210;21.174;2022-07-22T00:01:54;6.47;;;5.35;;
18407;SDS011;9330;52.210;21.174;2022-07-22T00:04:21;7.50;;;6.00;;
18407;SDS011;9330;52.210;21.174;2022-07-22T00:06:48;6.97;;;5.88;;
18407;SDS011;9330;52.210;21.174;2022-07-22T00:09:15;8.73;;;6.38;;
18407;SDS011;9330;52.210;21.174;2022-07-22T00:11:44;8.30;;;5.65;;
18407;SDS011;9330;52.210;21.174;2022-07-22T00:14:11;8.05;;;5.70;;
18407;SDS011;9330;52.210;21.174;2022-07-22T00:16:39;8.10;;;6.15;;
18407;SDS011;9330;52.210;21.174;2022-07-22T00:19:06;9.07;;;6.00;;
18407;SDS011;9330;52.210;21.174;2022-07-22T00:21:33;7.72;;;5.88;;
18407;SDS011;9330;52.210;21.174;2022-07-22T00:24:00;7.18;;;6.10;;
18407;SDS011;9330;52.210;21.174;2022-07-22T00:26:28;7.47;;;6.07;;
18407;SDS011;9330;52.210;21.174;2022-07-22T00:28:56;8.00;;;6.15;;
18407;SDS011;9330;52.210;21.174;2022-07-22T00:31:23;6.75;;;6.05;;
18407;SDS011;9330;52.210;21.174;2022-07-22T00:33:50;7.88;;;6.40;;
18407;SDS011;9330;52.210;21.174;2022-07-22T00:36:17;9.55;;;7.28;;
18407;SDS011;9330;52.210;21.174;2022-07-22T00:38:44;8.23;;;6.70;;
18407;SDS011;9330;52.210;21.174;2022-07-22T00:41:11;6.93;;;6.22;;
18407;SDS011;9330;52.210;21.174;2022-07-22T00:43:48;7.18;;;6.10;;
18407;SDS011;9330;52.210;21.174;2022-07-22T00:46:18;8.55;;;6.47;;
18407;SDS011;9330;52.210;21.174;2022-07-22T00:48:45;8.27;;;6.50;;
18407;SDS011;9330;52.210;21.174;2022-07-22T00:51:12;6.75;;;5.93;;
18407;SDS011;9330;52.210;21.174;2022-07-22T00:53:39;8.63;;;6.25;;
18407;SDS011;9330;52.210;21.174;2022-07-22T00:56:06;7.95;;;6.82;;
18407;SDS011;9330;52.210;21.174;2022-07-22T00:58:33;6.88;;;5.97;;
18407;SDS011;9330;52.210;21.174;2022-07-22T01:01:01;8.25;;;6.28;;
18407;SDS011;9330;52.210;21.174;2022-07-22T01:03:29;7.80;;;6.55;;
18407;SDS011;9330;52.210;21.174;2022-07-22T01:05:57;7.03;;;6.32;;
18407;SDS011;9330;52.210;21.174;2022-07-22T01:08:24;8.70;;;7.20;;
18407;SDS011;9330;52.210;21.174;2022-07-22T01:10:51;8.63;;;6.60;;
18407;SDS011;9330;52.210;21.174;2022-07-22T01:13:18;7.47;;;6.35;;
18407;SDS011;9330;52.210;21.174;2022-07-22T01:15:45;7.25;;;6.55;;
18407;SDS011;9330;52.210;21.174;2022-07-22T01:18:12;8.88;;;7.28;;
18407;SDS011;9330;52.210;21.174;2022-07-22T01:20:42;8.90;;;6.93;;
18407;SDS011;9330;52.210;21.174;2022-07-22T01:23:09;8.18;;;6.80;;
18407;SDS011;9330;52.210;21.174;2022-07-22T01:25:36;9.07;;;6.63;;
18407;SDS011;9330;52.210;21.174;2022-07-22T01:28:03;9.27;;;6.30;;
18407;SDS011;9330;52.210;21.174;2022-07-22T01:30:30;10.45;;;6.93;;
18407;SDS011;9330;52.210;21.174;2022-07-22T01:32:57;7.68;;;6.55;;
18407;SDS011;9330;52.210;21.174;2022-07-22T01:35:24;8.93;;;7.85;;
18407;SDS011;9330;52.210;21.174;2022-07-22T01:37:52;8.95;;;7.40;;
18407;SDS011;9330;52.210;21.174;2022-07-22T01:40:19;9.32;;;7.30;;
18407;SDS011;9330;52.210;21.174;2022-07-22T01:42:46;9.30;;;7.22;;
18407;SDS011;9330;52.210;21.174;2022-07-22T01:45:13;8.20;;;7.13;;
18407;SDS011;9330;52.210;21.174;2022-07-22T01:47:40;8.25;;;7.45;;
18407;SDS011;9330;52.210;21.174;2022-07-22T01:50:08;10.80;;;7.68;;
18407;SDS011;9330;52.210;21.174;2022-07-22T01:52:36;10.02;;;7.38;;
18407;SDS011;9330;52.210;21.174;2022-07-22T01:55:06;8.18;;;6.80;;
18407;SDS011;9330;52.210;21.174;2022-07-22T01:57:35;8.00;;;7.03;;
18407;SDS011;9330;52.210;21.174;2022-07-22T02:00:03;7.93;;;7.22;;
18407;SDS011;9330;52.210;21.174;2022-07-22T02:02:31;10.38;;;7.80;;
18407;SDS011;9330;52.210;21.174;2022-07-22T02:04:58;9.80;;;7.57;;
18407;SDS011;9330;52.210;21.174;2022-07-22T02:07:25;10.52;;;7.57;;
18407;SDS011;9330;52.210;21.174;2022-07-22T02:09:53;8.30;;;7.38;;
18407;SDS011;9330;52.210;21.174;2022-07-22T02:12:22;7.10;;;6.40;;
18407;SDS011;9330;52.210;21.174;2022-07-22T02:14:49;9.10;;;8.15;;
18407;SDS011;9330;52.210;21.174;2022-07-22T02:17:16;9.75;;;8.15;;
18407;SDS011;9330;52.210;21.174;2022-07-22T02:19:43;8.40;;;7.50;;
18407;SDS011;9330;52.210;21.174;2022-07-22T02:22:10;10.15;;;7.57;;
18407;SDS011;9330;52.210;21.174;2022-07-22T02:24:37;8.18;;;7.38;;
18407;SDS011;9330;52.210;21.174;2022-07-22T02:27:04;9.15;;;7.43;;
18407;SDS011;9330;52.210;21.174;2022-07-22T02:29:33;7.93;;;7.10;;
18407;SDS011;9330;52.210;21.174;2022-07-22T02:32:00;9.73;;;7.65;;
18407;SDS011;9330;52.210;21.174;2022-07-22T02:34:27;8.18;;;7.40;;
18407;SDS011;9330;52.210;21.174;2022-07-22T02:36:54;8.05;;;7.05;;
18407;SDS011;9330;52.210;21.174;2022-07-22T02:39:21;9.15;;;7.18;;
18407;SDS011;9330;52.210;21.174;2022-07-22T02:41:48;8.23;;;7.43;;
18407;SDS011;9330;52.210;21.174;2022-07-22T02:44:15;8.82;;;7.10;;
18407;SDS011;9330;52.210;21.174;2022-07-22T02:46:43;9.05;;;7.25;;
18407;SDS011;9330;52.210;21.174;2022-07-22T02:49:10;8.43;;;7.32;;
18407;SDS011;9330;52.210;21.174;2022-07-22T02:51:37;8.20;;;7.40;;
18407;SDS011;9330;52.210;21.174;2022-07-22T02:54:04;8.35;;;7.05;;
18407;SDS011;9330;52.210;21.174;2022-07-22T02:56:31;7.93;;;7.13;;
18407;SDS011;9330;52.210;21.174;2022-07-22T02:58:58;8.18;;;7.38;;
18407;SDS011;9330;52.210;21.174;2022-07-22T03:01:25;8.82;;;7.93;;
18407;SDS011;9330;52.210;21.174;2022-07-22T03:03:53;8.73;;;7.30;;
18407;SDS011;9330;52.210;21.174;2022-07-22T03:06:20;9.52;;;8.35;;
18407;SDS011;9330;52.210;21.174;2022-07-22T03:08:47;9.05;;;7.43;;
18407;SDS011;9330;52.210;21.174;2022-07-22T03:11:14;11.85;;;7.60;;
18407;SDS011;9330;52.210;21.174;2022-07-22T03:13:41;8.63;;;7.80;;
18407;SDS011;9330;52.210;21.174;2022-07-22T03:16:08;9.93;;;8.05;;
18407;SDS011;9330;52.210;21.174;2022-07-22T03:18:35;11.45;;;8.68;;
18407;SDS011;9330;52.210;21.174;2022-07-22T03:21:04;9.10;;;7.03;;
18407;SDS011;9330;52.210;21.174;2022-07-22T03:23:31;9.60;;;8.27;;
18407;SDS011;9330;52.210;21.174;2022-07-22T03:25:58;10.57;;;8.10;;
18407;SDS011;9330;52.210;21.174;2022-07-22T03:28:25;10.57;;;8.35;;
18407;SDS011;9330;52.210;21.174;2022-07-22T03:30:52;10.25;;;8.15;;
18407;SDS011;9330;52.210;21.174;2022-07-22T03:33:19;9.43;;;8.10;;
18407;SDS011;9330;52.210;21.174;2022-07-22T03:35:47;9.23;;;8.20;;
18407;SDS011;9330;52.210;21.174;2022-07-22T03:38:15;10.43;;;8.20;;
18407;SDS011;9330;52.210;21.174;2022-07-22T03:40:42;9.05;;;8.10;;
18407;SDS011;9330;52.210;21.174;2022-07-22T03:43:09;9.68;;;8.60;;
18407;SDS011;9330;52.210;21.174;2022-07-22T03:45:36;9.98;;;8.57;;
18407;SDS011;9330;52.210;21.174;2022-07-22T03:48:03;8.68;;;7.80;;
18407;SDS011;9330;52.210;21.174;2022-07-22T03:50:31;9.80;;;8.80;;
18407;SDS011;9330;52.210;21.174;2022-07-22T03:52:57;13.30;;;7.93;;
18407;SDS011;9330;52.210;21.174;2022-07-22T03:55:26;9.13;;;8.07;;
18407;SDS011;9330;52.210;21.174;2022-07-22T03:57:53;8.95;;;8.05;;
18407;SDS011;9330;52.210;21.174;2022-07-22T04:00:19;10.65;;;7.90;;
18407;SDS011;9330;52.210;21.174;2022-07-22T04:02:46;13.32;;;8.75;;
18407;SDS011;9330;52.210;21.174;2022-07-22T04:05:13;9.48;;;7.88;;
18407;SDS011;9330;52.210;21.174;2022-07-22T04:07:40;10.45;;;8.50;;
18407;SDS011;9330;52.210;21.174;2022-07-22T04:10:07;10.45;;;8.13;;
18407;SDS011;9330;52.210;21.174;2022-07-22T04:12:37;9.65;;;7.43;;
18407;SDS011;9330;52.210;21.174;2022-07-22T04:15:05;10.15;;;8.50;;
18407;SDS011;9330;52.210;21.174;2022-07-22T04:17:33;9.50;;;8.23;;
18407;SDS011;9330;52.210;21.174;2022-07-22T04:20:00;11.38;;;8.95;;
18407;SDS011;9330;52.210;21.174;2022-07-22T04:22:28;10.70;;;8.80;;
18407;SDS011;9330;52.210;21.174;2022-07-22T04:24:54;11.90;;;8.15;;
18407;SDS011;9330;52.210;21.174;2022-07-22T04:27:21;9.77;;;8.13;;
18407;SDS011;9330;52.210;21.174;2022-07-22T04:29:50;10.18;;;7.53;;
18407;SDS011;9330;52.210;21.174;2022-07-22T04:32:18;8.93;;;7.68;;
18407;SDS011;9330;52.210;21.174;2022-07-22T04:34:44;8.77;;;7.82;;
18407;SDS011;9330;52.210;21.174;2022-07-22T04:37:11;8.50;;;7.55;;
18407;SDS011;9330;52.210;21.174;2022-07-22T04:39:39;8.80;;;7.68;;
18407;SDS011;9330;52.210;21.174;2022-07-22T04:42:06;9.43;;;7.72;;
18407;SDS011;9330;52.210;21.174;2022-07-22T04:44:33;9.60;;;7.72;;
18407;SDS011;9330;52.210;21.174;2022-07-22T04:47:01;8.70;;;7.50;;
18407;SDS011;9330;52.210;21.174;2022-07-22T04:49:28;8.25;;;7.43;;
18407;SDS011;9330;52.210;21.174;2022-07-22T04:51:55;11.07;;;7.53;;
18407;SDS011;9330;52.210;21.174;2022-07-22T04:54:22;9.98;;;7.45;;
18407;SDS011;9330;52.210;21.174;2022-07-22T04:56:49;11.43;;;7.30;;
18407;SDS011;9330;52.210;21.174;2022-07-22T04:59:16;12.20;;;7.60;;
18407;SDS011;9330;52.210;21.174;2022-07-22T05:01:43;7.97;;;6.75;;
18407;SDS011;9330;52.210;21.174;2022-07-22T05:04:11;7.50;;;6.68;;
18407;SDS011;9330;52.210;21.174;2022-07-22T05:06:38;7.55;;;6.75;;
18407;SDS011;9330;52.210;21.174;2022-07-22T05:09:05;8.73;;;6.60;;
18407;SDS011;9330;52.210;21.174;2022-07-22T05:11:32;8.38;;;6.55;;
18407;SDS011;9330;52.210;21.174;2022-07-22T05:13:59;7.90;;;6.40;;
18407;SDS011;9330;52.210;21.174;2022-07-22T05:16:26;10.43;;;6.85;;
18407;SDS011;9330;52.210;21.174;2022-07-22T05:18:53;8.88;;;6.75;;
18407;SDS011;9330;52.210;21.174;2022-07-22T05:21:21;9.48;;;6.40;;
18407;SDS011;9330;52.210;21.174;2022-07-22T05:23:48;7.50;;;6.35;;
18407;SDS011;9330;52.210;21.174;2022-07-22T05:26:15;8.48;;;6.13;;
18407;SDS011;9330;52.210;21.174;2022-07-22T05:28:42;8.57;;;6.40;;
18407;SDS011;9330;52.210;21.174;2022-07-22T05:31:09;7.18;;;6.38;;
18407;SDS011;9330;52.210;21.174;2022-07-22T05:33:36;8.15;;;6.63;;
18407;SDS011;9330;52.210;21.174;2022-07-22T05:36:03;7.10;;;6.15;;
18407;SDS011;9330;52.210;21.174;2022-07-22T05:38:32;7.70;;;6.70;;
18407;SDS011;9330;52.210;21.174;2022-07-22T05:40:59;9.10;;;6.25;;
18407;SDS011;9330;52.210;21.174;2022-07-22T05:43:26;7.80;;;6.50;;
18407;SDS011;9330;52.210;21.174;2022-07-22T05:45:53;10.05;;;6.30;;
18407;SDS011;9330;52.210;21.174;2022-07-22T05:48:20;8.82;;;6.13;;
18407;SDS011;9330;52.210;21.174;2022-07-22T05:50:48;8.38;;;6.07;;
18407;SDS011;9330;52.210;21.174;2022-07-22T05:53:14;6.82;;;5.50;;
18407;SDS011;9330;52.210;21.174;2022-07-22T05:55:43;5.90;;;5.07;;
18407;SDS011;9330;52.210;21.174;2022-07-22T05:58:10;7.45;;;4.50;;
18407;SDS011;9330;52.210;21.174;2022-07-22T06:00:37;6.50;;;4.40;;
18407;SDS011;9330;52.210;21.174;2022-07-22T06:03:05;5.43;;;4.57;;
18407;SDS011;9330;52.210;21.174;2022-07-22T06:05:32;5.40;;;4.00;;
18407;SDS011;9330;52.210;21.174;2022-07-22T06:08:00;5.93;;;4.03;;
18407;SDS011;9330;52.210;21.174;2022-07-22T06:10:27;5.43;;;4.05;;
18407;SDS011;9330;52.210;21.174;2022-07-22T06:12:55;8.40;;;3.53;;
18407;SDS011;9330;52.210;21.174;2022-07-22T06:15:22;4.10;;;3.70;;
18407;SDS011;9330;52.210;21.174;2022-07-22T06:17:49;5.50;;;4.18;;
18407;SDS011;9330;52.210;21.174;2022-07-22T06:20:16;5.25;;;3.70;;
18407;SDS011;9330;52.210;21.174;2022-07-22T06:22:43;4.93;;;4.43;;
18407;SDS011;9330;52.210;21.174;2022-07-22T06:25:10;5.85;;;3.90;;
18407;SDS011;9330;52.210;21.174;2022-07-22T06:27:37;5.40;;;3.25;;
18407;SDS011;9330;52.210;21.174;2022-07-22T06:30:06;6.07;;;3.40;;
18407;SDS011;9330;52.210;21.174;2022-07-22T06:32:34;7.03;;;3.90;;
18407;SDS011;9330;52.210;21.174;2022-07-22T06:35:01;7.45;;;3.90;;
18407;SDS011;9330;52.210;21.174;2022-07-22T06:37:28;6.32;;;3.60;;
18407;SDS011;9330;52.210;21.174;2022-07-22T06:39:55;5.00;;;3.53;;
18407;SDS011;9330;52.210;21.174;2022-07-22T06:42:22;6.55;;;4.43;;
18407;SDS011;9330;52.210;21.174;2022-07-22T06:44:50;6.63;;;4.03;;
18407;SDS011;9330;52.210;21.174;2022-07-22T06:47:18;4.40;;;3.55;;
18407;SDS011;9330;52.210;21.174;2022-07-22T06:49:45;5.55;;;4.20;;
18407;SDS011;9330;52.210;21.174;2022-07-22T06:52:12;5.75;;;3.42;;
18407;SDS011;9330;52.210;21.174;2022-07-22T06:54:39;6.72;;;3.88;;
18407;SDS011;9330;52.210;21.174;2022-07-22T06:57:06;6.30;;;3.85;;
18407;SDS011;9330;52.210;21.174;2022-07-22T06:59:33;6.78;;;3.53;;
18407;SDS011;9330;52.210;21.174;2022-07-22T07:02:00;5.53;;;3.92;;
18407;SDS011;9330;52.210;21.174;2022-07-22T07:04:28;5.63;;;3.60;;
18407;SDS011;9330;52.210;21.174;2022-07-22T07:06:56;4.95;;;3.88;;
18407;SDS011;9330;52.210;21.174;2022-07-22T07:09:23;10.55;;;4.35;;
18407;SDS011;9330;52.210;21.174;2022-07-22T07:11:50;9.80;;;5.13;;
18407;SDS011;9330;52.210;21.174;2022-07-22T07:14:17;5.45;;;3.95;;
18407;SDS011;9330;52.210;21.174;2022-07-22T07:16:44;9.18;;;4.43;;
18407;SDS011;9330;52.210;21.174;2022-07-22T07:19:11;7.50;;;4.28;;
18407;SDS011;9330;52.210;21.174;2022-07-22T07:21:39;5.18;;;4.28;;
18407;SDS011;9330;52.210;21.174;2022-07-22T07:24:06;9.10;;;5.72;;
18407;SDS011;9330;52.210;21.174;2022-07-22T07:26:33;7.70;;;4.78;;
18407;SDS011;9330;52.210;21.174;2022-07-22T07:29:00;7.13;;;4.40;;
18407;SDS011;9330;52.210;21.174;2022-07-22T07:31:27;10.43;;;5.03;;
18407;SDS011;9330;52.210;21.174;2022-07-22T07:33:54;7.93;;;5.00;;
18407;SDS011;9330;52.210;21.174;2022-07-22T07:36:21;9.50;;;4.40;;
18407;SDS011;9330;52.210;21.174;2022-07-22T07:38:50;7.57;;;4.50;;
18407;SDS011;9330;52.210;21.174;2022-07-22T07:41:17;6.55;;;4.20;;
18407;SDS011;9330;52.210;21.174;2022-07-22T07:43:44;10.20;;;4.28;;
18407;SDS011;9330;52.210;21.174;2022-07-22T07:46:11;6.75;;;3.90;;
18407;SDS011;9330;52.210;21.174;2022-07-22T07:48:38;5.53;;;3.65;;
18407;SDS011;9330;52.210;21.174;2022-07-22T07:51:05;5.93;;;4.07;;
18407;SDS011;9330;52.210;21.174;2022-07-22T07:53:32;7.40;;;4.07;;
18407;SDS011;9330;52.210;21.174;2022-07-22T07:56:01;7.50;;;4.40;;
18407;SDS011;9330;52.210;21.174;2022-07-22T07:58:27;5.53;;;3.90;;
18407;SDS011;9330;52.210;21.174;2022-07-22T08:00:54;6.07;;;3.83;;
18407;SDS011;9330;52.210;21.174;2022-07-22T08:03:21;7.60;;;3.92;;
18407;SDS011;9330;52.210;21.174;2022-07-22T08:05:48;9.73;;;3.67;;
18407;SDS011;9330;52.210;21.174;2022-07-22T08:08:15;8.38;;;3.67;;
18407;SDS011;9330;52.210;21.174;2022-07-22T08:10:42;8.00;;;3.40;;
18407;SDS011;9330;52.210;21.174;2022-07-22T08:13:11;6.28;;;3.92;;
18407;SDS011;9330;52.210;21.174;2022-07-22T08:15:38;7.97;;;3.83;;
18407;SDS011;9330;52.210;21.174;2022-07-22T08:18:05;8.07;;;3.42;;
18407;SDS011;9330;52.210;21.174;2022-07-22T08:20:32;6.88;;;3.60;;
18407;SDS011;9330;52.210;21.174;2022-07-22T08:22:59;8.68;;;3.67;;
18407;SDS011;9330;52.210;21.174;2022-07-22T08:25:26;4.93;;;3.47;;
18407;SDS011;9330;52.210;21.174;2022-07-22T08:27:53;4.25;;;3.10;;
18407;SDS011;9330;52.210;21.174;2022-07-22T08:30:23;9.88;;;3.90;;
18407;SDS011;9330;52.210;21.174;2022-07-22T08:32:52;4.65;;;3.58;;
18407;SDS011;9330;52.210;21.174;2022-07-22T08:35:19;5.97;;;3.33;;
18407;SDS011;9330;52.210;21.174;2022-07-22T08:37:46;8.07;;;4.50;;
18407;SDS011;9330;52.210;21.174;2022-07-22T08:40:14;7.43;;;3.67;;
18407;SDS011;9330;52.210;21.174;2022-07-22T08:42:42;5.05;;;3.25;;
18407;SDS011;9330;52.210;21.174;2022-07-22T08:45:13;9.43;;;3.25;;
18407;SDS011;9330;52.210;21.174;2022-07-22T08:47:44;8.63;;;3.60;;
18407;SDS011;9330;52.210;21.174;2022-07-22T08:50:11;7.30;;;3.97;;
18407;SDS011;9330;52.210;21.174;2022-07-22T08:52:38;8.25;;;4.00;;
18407;SDS011;9330;52.210;21.174;2022-07-22T08:55:06;9.38;;;3.75;;
18407;SDS011;9330;52.210;21.174;2022-07-22T08:57:34;5.72;;;3.85;;
18407;SDS011;9330;52.210;21.174;2022-07-22T09:00:03;5.95;;;4.05;;
18407;SDS011;9330;52.210;21.174;2022-07-22T09:02:36;7.75;;;4.47;;
18407;SDS011;9330;52.210;21.174;2022-07-22T09:05:06;7.60;;;4.60;;
18407;SDS011;9330;52.210;21.174;2022-07-22T09:07:35;5.65;;;4.47;;
18407;SDS011;9330;52.210;21.174;2022-07-22T09:10:03;10.70;;;4.82;;
18407;SDS011;9330;52.210;21.174;2022-07-22T09:12:32;7.30;;;4.72;;
18407;SDS011;9330;52.210;21.174;2022-07-22T09:15:00;7.20;;;5.32;;
18407;SDS011;9330;52.210;21.174;2022-07-22T09:17:29;7.70;;;5.10;;
18407;SDS011;9330;52.210;21.174;2022-07-22T09:20:00;6.85;;;5.03;;
18407;SDS011;9330;52.210;21.174;2022-07-22T09:22:32;8.90;;;5.10;;
18407;SDS011;9330;52.210;21.174;2022-07-22T09:27:43;8.73;;;5.32;;
18407;SDS011;9330;52.210;21.174;2022-07-22T09:30:11;10.60;;;5.53;;
18407;SDS011;9330;52.210;21.174;2022-07-22T09:32:39;6.18;;;5.50;;
18407;SDS011;9330;52.210;21.174;2022-07-22T09:35:07;9.15;;;5.68;;
18407;SDS011;9330;52.210;21.174;2022-07-22T09:37:36;7.03;;;5.50;;
18407;SDS011;9330;52.210;21.174;2022-07-22T09:40:14;9.20;;;5.82;;
18407;SDS011;9330;52.210;21.174;2022-07-22T09:42:45;10.40;;;6.10;;
18407;SDS011;9330;52.210;21.174;2022-07-22T09:45:14;11.02;;;6.45;;
18407;SDS011;9330;52.210;21.174;2022-07-22T09:47:42;11.00;;;6.95;;
18407;SDS011;9330;52.210;21.174;2022-07-22T09:50:13;7.90;;;6.95;;
18407;SDS011;9330;52.210;21.174;2022-07-22T09:52:43;9.30;;;7.15;;
18407;SDS011;9330;52.210;21.174;2022-07-22T09:55:10;10.90;;;7.43;;
18407;SDS011;9330;52.210;21.174;2022-07-22T09:57:39;10.38;;;7.78;;
18407;SDS011;9330;52.210;21.174;2022-07-22T10:00:06;10.88;;;6.93;;
18407;SDS011;9330;52.210;21.174;2022-07-22T10:02:35;8.57;;;7.65;;
18407;SDS011;9330;52.210;21.174;2022-07-22T10:05:08;10.65;;;7.80;;
18407;SDS011;9330;52.210;21.174;2022-07-22T10:07:39;11.43;;;8.30;;
18407;SDS011;9330;52.210;21.174;2022-07-22T10:10:09;9.40;;;8.30;;
18407;SDS011;9330;52.210;21.174;2022-07-22T10:12:38;13.77;;;8.85;;
18407;SDS011;9330;52.210;21.174;2022-07-22T10:15:06;10.50;;;7.78;;
18407;SDS011;9330;52.210;21.174;2022-07-22T10:17:35;11.07;;;8.25;;
18407;SDS011;9330;52.210;21.174;2022-07-22T10:20:03;12.88;;;8.70;;
18407;SDS011;9330;52.210;21.174;2022-07-22T10:22:44;13.05;;;8.13;;
18407;SDS011;9330;52.210;21.174;2022-07-22T10:25:16;10.27;;;8.48;;
18407;SDS011;9330;52.210;21.174;2022-07-22T10:27:45;10.55;;;7.65;;
18407;SDS011;9330;52.210;21.174;2022-07-22T10:30:13;10.68;;;8.80;;
18407;SDS011;9330;52.210;21.174;2022-07-22T10:32:42;12.30;;;7.85;;
18407;SDS011;9330;52.210;21.174;2022-07-22T10:35:22;9.50;;;7.88;;
18407;SDS011;9330;52.210;21.174;2022-07-22T10:37:57;10.23;;;7.40;;
18407;SDS011;9330;52.210;21.174;2022-07-22T10:40:29;8.68;;;7.78;;
18407;SDS011;9330;52.210;21.174;2022-07-22T10:43:10;8.75;;;7.50;;
18407;SDS011;9330;52.210;21.174;2022-07-22T10:45:39;8.80;;;7.07;;
18407;SDS011;9330;52.210;21.174;2022-07-22T10:48:09;9.95;;;7.28;;
18407;SDS011;9330;52.210;21.174;2022-07-22T10:50:44;8.50;;;7.65;;
18407;SDS011;9330;52.210;21.174;2022-07-22T10:53:17;8.57;;;6.47;;
18407;SDS011;9330;52.210;21.174;2022-07-22T10:56:00;10.93;;;7.28;;
18407;SDS011;9330;52.210;21.174;2022-07-22T10:58:40;7.72;;;6.47;;
18407;SDS011;9330;52.210;21.174;2022-07-22T11:01:12;10.13;;;7.20;;
18407;SDS011;9330;52.210;21.174;2022-07-22T11:03:42;10.52;;;8.15;;
18407;SDS011;9330;52.210;21.174;2022-07-22T11:06:14;8.82;;;7.47;;
18407;SDS011;9330;52.210;21.174;2022-07-22T11:08:53;11.20;;;8.15;;
18407;SDS011;9330;52.210;21.174;2022-07-22T11:11:41;11.15;;;7.68;;
18407;SDS011;9330;52.210;21.174;2022-07-22T11:14:17;8.45;;;7.47;;
18407;SDS011;9330;52.210;21.174;2022-07-22T11:16:46;10.80;;;7.40;;
18407;SDS011;9330;52.210;21.174;2022-07-22T11:19:18;8.48;;;7.38;;
18407;SDS011;9330;52.210;21.174;2022-07-22T11:21:48;11.25;;;7.38;;
18407;SDS011;9330;52.210;21.174;2022-07-22T11:24:16;11.43;;;7.88;;
18407;SDS011;9330;52.210;21.174;2022-07-22T11:26:47;10.80;;;6.90;;
18407;SDS011;9330;52.210;21.174;2022-07-22T11:29:16;7.90;;;7.13;;
18407;SDS011;9330;52.210;21.174;2022-07-22T11:31:44;12.18;;;7.97;;
18407;SDS011;9330;52.210;21.174;2022-07-22T11:34:12;8.98;;;7.93;;
18407;SDS011;9330;52.210;21.174;2022-07-22T11:36:41;9.38;;;7.38;;
18407;SDS011;9330;52.210;21.174;2022-07-22T11:39:10;8.55;;;6.78;;
18407;SDS011;9330;52.210;21.174;2022-07-22T11:41:39;10.43;;;6.13;;
18407;SDS011;9330;52.210;21.174;2022-07-22T11:44:07;7.95;;;6.90;;
18407;SDS011;9330;52.210;21.174;2022-07-22T11:46:35;9.48;;;7.07;;
18407;SDS011;9330;52.210;21.174;2022-07-22T11:49:02;9.65;;;6.95;;
18407;SDS011;9330;52.210;21.174;2022-07-22T11:51:30;10.18;;;7.68;;
18407;SDS011;9330;52.210;21.174;2022-07-22T11:53:58;10.55;;;7.55;;
18407;SDS011;9330;52.210;21.174;2022-07-22T11:56:26;10.18;;;8.13;;
18407;SDS011;9330;52.210;21.174;2022-07-22T11:58:53;10.35;;;8.27;;
18407;SDS011;9330;52.210;21.174;2022-07-22T12:01:23;12.63;;;8.23;;
18407;SDS011;9330;52.210;21.174;2022-07-22T12:03:52;9.73;;;7.72;;
18407;SDS011;9330;52.210;21.174;2022-07-22T12:06:21;7.57;;;6.78;;
18407;SDS011;9330;52.210;21.174;2022-07-22T12:08:49;13.40;;;8.02;;
18407;SDS011;9330;52.210;21.174;2022-07-22T12:11:18;9.23;;;7.68;;
18407;SDS011;9330;52.210;21.174;2022-07-22T12:13:48;9.55;;;7.50;;
18407;SDS011;9330;52.210;21.174;2022-07-22T12:16:17;9.65;;;8.45;;
18407;SDS011;9330;52.210;21.174;2022-07-22T12:18:55;10.85;;;7.90;;
18407;SDS011;9330;52.210;21.174;2022-07-22T12:21:24;12.82;;;8.15;;
18407;SDS011;9330;52.210;21.174;2022-07-22T12:23:52;9.23;;;7.95;;
18407;SDS011;9330;52.210;21.174;2022-07-22T12:26:40;7.80;;;7.00;;
18407;SDS011;9330;52.210;21.174;2022-07-22T12:29:16;8.32;;;7.13;;
18407;SDS011;9330;52.210;21.174;2022-07-22T12:31:47;9.40;;;7.85;;
18407;SDS011;9330;52.210;21.174;2022-07-22T12:34:16;11.27;;;7.80;;
18407;SDS011;9330;52.210;21.174;2022-07-22T12:36:43;12.18;;;8.23;;
18407;SDS011;9330;52.210;21.174;2022-07-22T12:39:15;10.50;;;7.60;;
18407;SDS011;9330;52.210;21.174;2022-07-22T12:41:47;10.55;;;8.15;;
18407;SDS011;9330;52.210;21.174;2022-07-22T12:44:18;11.93;;;8.30;;
18407;SDS011;9330;52.210;21.174;2022-07-22T12:46:50;10.40;;;8.63;;
18407;SDS011;9330;52.210;21.174;2022-07-22T12:49:18;9.48;;;8.13;;
18407;SDS011;9330;52.210;21.174;2022-07-22T12:52:06;8.93;;;8.02;;
18407;SDS011;9330;52.210;21.174;2022-07-22T12:54:34;10.48;;;8.05;;
18407;SDS011;9330;52.210;21.174;2022-07-22T12:57:02;8.20;;;7.43;;
18407;SDS011;9330;52.210;21.174;2022-07-22T12:59:30;8.45;;;7.65;;
18407;SDS011;9330;52.210;21.174;2022-07-22T13:01:59;9.25;;;7.53;;
18407;SDS011;9330;52.210;21.174;2022-07-22T13:04:27;14.68;;;8.48;;
18407;SDS011;9330;52.210;21.174;2022-07-22T13:06:55;10.40;;;8.82;;
18407;SDS011;9330;52.210;21.174;2022-07-22T13:09:22;11.50;;;8.88;;
18407;SDS011;9330;52.210;21.174;2022-07-22T13:11:49;9.63;;;8.30;;
18407;SDS011;9330;52.210;21.174;2022-07-22T13:14:16;11.20;;;8.40;;
18407;SDS011;9330;52.210;21.174;2022-07-22T13:16:43;15.05;;;9.32;;
18407;SDS011;9330;52.210;21.174;2022-07-22T13:19:11;11.95;;;8.77;;
18407;SDS011;9330;52.210;21.174;2022-07-22T13:21:38;10.43;;;8.95;;
18407;SDS011;9330;52.210;21.174;2022-07-22T13:24:06;10.38;;;8.25;;
18407;SDS011;9330;52.210;21.174;2022-07-22T13:26:33;9.95;;;8.93;;
18407;SDS011;9330;52.210;21.174;2022-07-22T13:29:00;9.60;;;8.25;;
18407;SDS011;9330;52.210;21.174;2022-07-22T13:31:27;8.98;;;8.05;;
18407;SDS011;9330;52.210;21.174;2022-07-22T13:33:54;9.38;;;7.57;;
18407;SDS011;9330;52.210;21.174;2022-07-22T13:36:22;9.48;;;7.78;;
18407;SDS011;9330;52.210;21.174;2022-07-22T13:38:50;10.77;;;7.38;;
18407;SDS011;9330;52.210;21.174;2022-07-22T13:41:17;9.38;;;8.52;;
18407;SDS011;9330;52.210;21.174;2022-07-22T13:43:44;8.07;;;7.28;;
18407;SDS011;9330;52.210;21.174;2022-07-22T13:46:14;8.02;;;7.22;;
18407;SDS011;9330;52.210;21.174;2022-07-22T13:48:41;7.72;;;7.00;;
18407;SDS011;9330;52.210;21.174;2022-07-22T13:51:09;9.18;;;7.10;;
18407;SDS011;9330;52.210;21.174;2022-07-22T13:53:38;11.55;;;7.28;;
18407;SDS011;9330;52.210;21.174;2022-07-22T13:56:05;8.70;;;6.72;;
18407;SDS011;9330;52.210;21.174;2022-07-22T13:58:34;8.15;;;7.35;;
18407;SDS011;9330;52.210;21.174;2022-07-22T14:01:02;8.80;;;7.05;;
18407;SDS011;9330;52.210;21.174;2022-07-22T14:03:28;8.73;;;7.25;;
18407;SDS011;9330;52.210;21.174;2022-07-22T14:05:55;7.95;;;7.13;;
18407;SDS011;9330;52.210;21.174;2022-07-22T14:08:22;7.68;;;6.97;;
18407;SDS011;9330;52.210;21.174;2022-07-22T14:10:50;10.32;;;7.55;;
18407;SDS011;9330;52.210;21.174;2022-07-22T14:13:17;8.50;;;7.63;;
18407;SDS011;9330;52.210;21.174;2022-07-22T14:15:44;8.68;;;7.55;;
18407;SDS011;9330;52.210;21.174;2022-07-22T14:18:11;9.50;;;7.32;;
18407;SDS011;9330;52.210;21.174;2022-07-22T14:20:39;7.78;;;6.97;;
18407;SDS011;9330;52.210;21.174;2022-07-22T14:23:06;11.02;;;7.03;;
18407;SDS011;9330;52.210;21.174;2022-07-22T14:25:34;9.10;;;7.63;;
18407;SDS011;9330;52.210;21.174;2022-07-22T14:28:03;7.97;;;7.20;;
18407;SDS011;9330;52.210;21.174;2022-07-22T14:30:30;9.38;;;7.30;;
18407;SDS011;9330;52.210;21.174;2022-07-22T14:32:57;7.50;;;6.72;;
18407;SDS011;9330;52.210;21.174;2022-07-22T14:38:32;9.73;;;7.05;;
18407;SDS011;9330;52.210;21.174;2022-07-22T14:40:59;7.88;;;7.13;;
18407;SDS011;9330;52.210;21.174;2022-07-22T14:43:27;8.40;;;7.45;;
18407;SDS011;9330;52.210;21.174;2022-07-22T14:45:54;9.05;;;8.23;;
18407;SDS011;9330;52.210;21.174;2022-07-22T14:48:21;8.27;;;7.50;;
18407;SDS011;9330;52.210;21.174;2022-07-22T14:50:48;9.95;;;7.00;;
18407;SDS011;9330;52.210;21.174;2022-07-22T14:53:15;7.47;;;6.70;;
18407;SDS011;9330;52.210;21.174;2022-07-22T14:55:42;8.40;;;7.60;;
18407;SDS011;9330;52.210;21.174;2022-07-22T14:58:09;7.95;;;7.20;;